aviador You're here:

KMMV Decoded Metar

MACKMINNVILLE in OR, USA
Report Time2018-07-16 07:53:00
UTC Time2018-07-16 08:39:06
Flight Rules vfr VFR
Wind280° at 04 kt
W.Decomp.*RWY 22: 3.0 kt HW 2.6 kt RCW
RWY 35: 0.1 kt HW 4 kt LCW
W.Rank280° ranks 18
Current wind is below 280° avg. (4.6)
Visibility9999 m
Phenomena:N/A
Clouds:N/A
Expected CloudBase > 4,000 ft AGL from Temp-Dew spread
CeilingNone
Temp21°C (ISA +6)
Dew Point11°C (53% RH)
AAT19.9°C
QNH1015 hPa
Density Alt1,004 ft
Elevation157 ft
Report Wrong Elevation
Raw Report
KMMV 160753Z AUTO 28004KT 10SM CLR 21/11 A2996 RMK AO2 SLP142
T02060111 403670128=

Extra information for KMMV:More info

Metar Taf Metar & Taf Last 4 Metars F.Rules Stats Wind Profile Meteogram Temp Stats Airport Information Weather charts Add Link Nearby VenuesMetar ALERT Operation Metar Decoded Social comments

AIRNAV info for KMMV